createdAt,value
2018-06-13T00:00:30.826Z,8.53
2018-06-13T00:03:01.218Z,12.43
2018-06-13T00:05:32.556Z,7.83
2018-06-13T00:08:01.405Z,9.03
2018-06-13T00:10:34.424Z,10.37
2018-06-13T00:13:03.038Z,8.97
2018-06-13T00:15:31.664Z,10.17
2018-06-13T00:18:01.189Z,9.30
2018-06-13T00:20:29.843Z,8.97
2018-06-13T00:23:00.466Z,9.90
2018-06-13T00:25:28.761Z,10.13
2018-06-13T00:27:57.934Z,11.60
2018-06-13T00:30:26.591Z,12.60
2018-06-13T00:32:54.794Z,7.33
2018-06-13T00:35:23.055Z,8.60
2018-06-13T00:37:51.572Z,12.10
2018-06-13T00:40:20.263Z,11.50
2018-06-13T00:42:49.855Z,9.90
2018-06-13T00:45:18.349Z,10.57
2018-06-13T00:47:47.033Z,13.57
2018-06-13T00:50:15.325Z,14.53
2018-06-13T00:52:44.258Z,15.17
2018-06-13T00:55:12.863Z,9.87
2018-06-13T00:57:41.147Z,12.50
2018-06-13T01:00:10.442Z,11.17
2018-06-13T01:02:39.772Z,16.20
2018-06-13T01:05:08.950Z,12.23
2018-06-13T01:07:37.906Z,8.17
2018-06-13T01:10:06.493Z,11.27
2018-06-13T01:12:36.531Z,12.43
2018-06-13T01:15:06.671Z,10.13
2018-06-13T01:17:35.348Z,9.53
2018-06-13T01:20:03.891Z,9.33
2018-06-13T01:22:32.751Z,11.20
2018-06-13T01:25:02.111Z,9.53
2018-06-13T01:27:31.504Z,10.70
2018-06-13T01:30:01.955Z,10.27
2018-06-13T01:32:31.999Z,11.47
2018-06-13T01:35:00.735Z,8.90
2018-06-13T01:41:00.933Z,9.47
2018-06-13T01:43:29.880Z,13.50
2018-06-13T01:45:58.592Z,9.50
2018-06-13T01:48:29.002Z,10.07
2018-06-13T01:50:59.126Z,12.10
2018-06-13T01:53:29.415Z,10.97
2018-06-13T01:56:27.118Z,12.73
2018-06-13T01:58:55.814Z,10.40
2018-06-13T02:01:24.189Z,12.10
2018-06-13T02:03:53.023Z,13.90
2018-06-13T02:06:21.450Z,11.60
2018-06-13T02:08:50.356Z,11.80
2018-06-13T02:11:19.150Z,10.20
2018-06-13T02:13:48.009Z,10.37
2018-06-13T02:16:17.515Z,11.83
2018-06-13T02:18:46.554Z,11.77
2018-06-13T02:21:15.689Z,15.07
2018-06-13T02:23:44.071Z,13.73
2018-06-13T02:26:13.893Z,14.03
2018-06-13T02:28:42.994Z,16.30
2018-06-13T02:31:12.511Z,13.00
2018-06-13T02:33:41.451Z,13.33
2018-06-13T02:36:11.058Z,13.93
2018-06-13T02:38:39.402Z,11.87
2018-06-13T02:41:08.590Z,12.53
2018-06-13T02:43:36.937Z,15.50
2018-06-13T02:46:11.560Z,11.53
2018-06-13T02:48:40.507Z,15.60
2018-06-13T02:51:10.761Z,11.13
2018-06-13T02:53:39.026Z,14.23
2018-06-13T02:56:08.767Z,13.60
2018-06-13T02:58:38.066Z,14.93
2018-06-13T03:01:06.428Z,12.77
2018-06-13T03:03:35.304Z,13.57
2018-06-13T03:06:05.114Z,16.53
2018-06-13T03:08:34.499Z,10.37
2018-06-13T03:11:05.413Z,13.77
2018-06-13T03:13:34.279Z,16.77
2018-06-13T03:16:03.236Z,14.93
2018-06-13T03:18:32.408Z,11.87
2018-06-13T03:21:01.509Z,15.73
2018-06-13T03:23:30.080Z,11.50
2018-06-13T03:25:58.935Z,14.17
2018-06-13T03:28:27.702Z,12.07
2018-06-13T03:30:56.613Z,16.73
2018-06-13T03:33:25.973Z,15.37
2018-06-13T03:35:55.479Z,17.40
2018-06-13T03:38:25.537Z,13.47
2018-06-13T03:40:57.380Z,12.90
2018-06-13T03:43:26.739Z,14.20
2018-06-13T03:45:55.778Z,15.20
2018-06-13T03:48:24.791Z,14.20
2018-06-13T03:50:54.123Z,17.00
2018-06-13T03:53:23.474Z,11.20
2018-06-13T03:55:52.833Z,13.97
2018-06-13T03:58:21.500Z,11.93
2018-06-13T04:00:51.650Z,10.97
2018-06-13T04:03:20.261Z,12.73
2018-06-13T04:05:49.690Z,17.83
2018-06-13T04:08:18.760Z,14.23
2018-06-13T04:10:48.288Z,11.83
2018-06-13T04:13:17.021Z,13.63
2018-06-13T04:15:47.062Z,13.57
2018-06-13T04:18:18.102Z,12.87
2018-06-13T04:20:47.388Z,13.13
2018-06-13T04:23:16.608Z,9.03
2018-06-13T04:25:45.396Z,12.10
2018-06-13T04:28:14.449Z,13.67
2018-06-13T04:30:43.418Z,15.10
2018-06-13T04:33:12.481Z,15.97
2018-06-13T04:35:42.327Z,12.40
2018-06-13T04:38:12.168Z,13.50
2018-06-13T04:40:46.262Z,16.43
2018-06-13T04:43:15.107Z,13.00
2018-06-13T04:45:48.544Z,12.33
2018-06-13T04:48:17.892Z,13.80
2018-06-13T04:50:47.470Z,13.00
2018-06-13T04:53:17.506Z,15.00
2018-06-13T04:55:48.467Z,13.53
2018-06-13T04:58:19.312Z,13.80
2018-06-13T05:00:48.141Z,15.57
2018-06-13T05:03:17.115Z,14.77
2018-06-13T05:05:47.179Z,13.17
2018-06-13T05:08:17.734Z,10.27
2018-06-13T05:10:46.055Z,15.03
2018-06-13T05:13:14.631Z,12.60
2018-06-13T05:15:48.327Z,13.43
2018-06-13T05:20:53.609Z,14.30
2018-06-13T05:23:22.808Z,14.73
2018-06-13T05:25:52.915Z,14.30
2018-06-13T05:28:23.913Z,14.27
2018-06-13T05:30:52.395Z,15.03
2018-06-13T05:33:21.391Z,14.20
2018-06-13T05:35:51.606Z,14.30
2018-06-13T05:38:20.599Z,15.77
2018-06-13T05:40:51.292Z,16.13
2018-06-13T05:43:24.232Z,14.50
2018-06-13T05:46:04.752Z,10.80
2018-06-13T05:48:34.568Z,12.23
2018-06-13T05:51:07.626Z,12.87
2018-06-13T05:53:42.125Z,12.80
2018-06-13T05:56:45.783Z,14.17
2018-06-13T05:59:16.563Z,12.97
2018-06-13T06:01:46.135Z,27.47
2018-06-13T06:04:20.144Z,14.73
2018-06-13T06:06:51.803Z,14.73
2018-06-13T06:09:20.479Z,12.27
2018-06-13T06:11:50.953Z,12.77
2018-06-13T06:14:19.937Z,14.33
2018-06-13T06:16:55.936Z,12.83
2018-06-13T06:22:28.509Z,12.67
2018-06-13T06:24:58.500Z,11.47
2018-06-13T06:27:35.494Z,10.93
2018-06-13T06:30:04.998Z,11.70
2018-06-13T06:32:34.724Z,13.60
2018-06-13T06:35:03.534Z,13.93
2018-06-13T06:37:32.861Z,13.67
2018-06-13T06:40:04.116Z,12.07
2018-06-13T06:42:35.739Z,16.60
2018-06-13T06:45:04.953Z,13.73
2018-06-13T06:47:35.725Z,16.50
2018-06-13T06:50:07.795Z,15.37
2018-06-13T06:52:46.792Z,22.73
2018-06-13T06:55:16.507Z,13.77
2018-06-13T06:57:44.831Z,14.00
2018-06-13T07:00:15.593Z,12.87
2018-06-13T07:02:49.007Z,12.70
2018-06-13T07:05:25.960Z,12.30
2018-06-13T07:07:58.845Z,12.37
2018-06-13T07:10:29.156Z,12.70
2018-06-13T07:13:04.834Z,12.67
2018-06-13T07:15:34.480Z,13.13
2018-06-13T07:18:15.047Z,13.33
2018-06-13T07:20:45.134Z,13.57
2018-06-13T07:23:13.993Z,15.97
2018-06-13T07:25:43.058Z,17.27
2018-06-13T07:28:12.097Z,14.97
2018-06-13T07:30:40.395Z,14.10
2018-06-13T07:33:08.921Z,15.50
2018-06-13T07:35:38.477Z,14.20
2018-06-13T07:38:07.675Z,19.97
2018-06-13T07:40:41.232Z,19.17
2018-06-13T07:43:10.037Z,16.53
2018-06-13T07:45:39.096Z,20.17
2018-06-13T07:48:13.980Z,19.70
2018-06-13T07:50:43.551Z,19.47
2018-06-13T07:53:21.825Z,17.37
2018-06-13T07:55:52.058Z,14.53
2018-06-13T07:58:27.536Z,14.73
2018-06-13T08:00:59.316Z,14.07
2018-06-13T08:03:29.957Z,17.57
2018-06-13T08:06:00.139Z,16.87
2018-06-13T08:08:36.696Z,15.93
2018-06-13T08:11:13.641Z,13.50
2018-06-13T08:13:48.959Z,14.17
2018-06-13T08:16:18.417Z,12.67
2018-06-13T08:18:52.291Z,15.97
2018-06-13T08:27:48.529Z,13.47
2018-06-13T08:30:17.847Z,12.50
2018-06-13T08:32:48.142Z,12.73
2018-06-13T08:35:19.867Z,12.27
2018-06-13T08:38:03.307Z,10.10
2018-06-13T08:40:40.566Z,15.37
2018-06-13T08:43:11.904Z,13.90
2018-06-13T08:45:41.270Z,14.10
2018-06-13T08:48:11.014Z,11.27
2018-06-13T08:50:39.675Z,11.10
2018-06-13T08:53:09.030Z,16.03
2018-06-13T08:55:38.829Z,9.97
2018-06-13T09:00:50.975Z,9.47
2018-06-13T09:03:26.796Z,9.83
2018-06-13T09:05:57.298Z,11.80
2018-06-13T09:08:31.266Z,9.30
2018-06-13T09:11:01.984Z,10.10
2018-06-13T09:13:35.727Z,10.80
2018-06-13T09:18:53.577Z,10.10
2018-06-13T09:21:23.904Z,19.17
2018-06-13T09:26:33.444Z,10.37
2018-06-13T09:29:13.866Z,14.10
2018-06-13T09:31:43.047Z,12.17
2018-06-13T09:34:18.727Z,11.50
2018-06-13T09:36:50.310Z,10.57
2018-06-13T09:39:26.068Z,8.67
2018-06-13T09:42:02.815Z,9.73
2018-06-13T09:47:23.458Z,11.27
2018-06-13T09:49:57.774Z,9.27
2018-06-13T09:55:18.441Z,12.37
2018-06-13T09:58:21.662Z,8.67
2018-06-13T10:01:01.644Z,12.87
2018-06-13T10:03:37.167Z,10.47
2018-06-13T10:06:06.887Z,10.77
2018-06-13T10:08:37.080Z,11.17
2018-06-13T10:11:08.757Z,19.20
2018-06-13T10:13:37.497Z,13.70
2018-06-13T10:16:23.735Z,11.27
2018-06-13T10:18:53.653Z,14.60
2018-06-13T10:21:23.507Z,13.27
2018-06-13T10:26:26.746Z,14.90
2018-06-13T10:28:55.847Z,14.13
2018-06-13T10:31:25.284Z,8.83
2018-06-13T10:33:53.965Z,11.60
2018-06-13T10:36:38.359Z,10.93
2018-06-13T10:39:08.457Z,10.07
2018-06-13T10:44:13.054Z,9.53
2018-06-13T10:46:42.700Z,8.67
2018-06-13T10:49:16.989Z,14.43
2018-06-13T10:51:45.952Z,13.33
2018-06-13T10:54:16.303Z,13.20
2018-06-13T10:56:51.890Z,11.87
2018-06-13T10:59:23.885Z,17.60
2018-06-13T11:01:52.709Z,11.40
2018-06-13T11:04:24.391Z,11.43
2018-06-13T11:07:03.474Z,31.23
2018-06-13T11:09:34.207Z,11.27
2018-06-13T11:12:07.926Z,13.97
2018-06-13T11:17:17.436Z,9.27
2018-06-13T11:19:46.878Z,9.77
2018-06-13T11:22:17.119Z,8.57
2018-06-13T11:24:50.500Z,10.17
2018-06-13T11:27:20.620Z,10.73
2018-06-13T11:29:49.351Z,9.13
2018-06-13T11:32:23.387Z,9.00
2018-06-13T11:34:57.258Z,8.90
2018-06-13T11:37:27.910Z,8.43
2018-06-13T11:39:58.577Z,11.50
2018-06-13T11:42:34.131Z,8.67
2018-06-13T11:45:03.795Z,12.37
2018-06-13T11:50:58.723Z,10.33
2018-06-13T11:53:28.570Z,10.73
2018-06-13T11:55:58.366Z,12.17
2018-06-13T11:58:27.499Z,13.73
2018-06-13T12:00:56.892Z,7.57
2018-06-13T12:03:25.358Z,8.07
2018-06-13T12:05:54.464Z,12.63
2018-06-13T12:08:23.411Z,9.07
2018-06-13T12:10:53.777Z,9.57
2018-06-13T12:13:22.239Z,8.10
2018-06-13T12:15:50.647Z,11.30
2018-06-13T12:18:19.117Z,9.53
2018-06-13T12:20:49.952Z,6.43
2018-06-13T12:23:18.434Z,7.80
2018-06-13T12:25:48.255Z,8.67
2018-06-13T12:28:17.456Z,8.93
2018-06-13T12:30:45.936Z,9.53
2018-06-13T12:33:15.634Z,6.70
2018-06-13T12:35:43.973Z,8.40
2018-06-13T12:38:12.287Z,9.93
2018-06-13T12:40:42.354Z,5.03
2018-06-13T12:43:11.890Z,6.50
2018-06-13T12:45:40.456Z,6.27
2018-06-13T12:48:19.105Z,9.40
2018-06-13T12:50:50.449Z,6.53
2018-06-13T12:53:19.447Z,8.87
2018-06-13T12:55:48.135Z,7.47
2018-06-13T12:58:18.440Z,5.50
2018-06-13T13:00:47.555Z,6.43
2018-06-13T13:03:17.442Z,7.50
2018-06-13T13:05:46.326Z,7.73
2018-06-13T13:08:14.801Z,8.40
2018-06-13T13:10:47.195Z,7.07
2018-06-13T13:13:19.923Z,8.60
2018-06-13T13:15:48.761Z,7.20
2018-06-13T13:18:19.079Z,5.83
2018-06-13T13:20:52.687Z,5.57
2018-06-13T13:23:26.860Z,7.20
2018-06-13T13:25:56.927Z,6.17
2018-06-13T13:28:30.098Z,5.83
2018-06-13T13:31:00.537Z,7.53
2018-06-13T13:33:29.102Z,10.07
2018-06-13T13:35:58.233Z,7.70
2018-06-13T13:38:28.107Z,7.13
2018-06-13T13:41:03.421Z,7.03
2018-06-13T13:43:36.275Z,7.10
2018-06-13T13:46:10.422Z,5.80
2018-06-13T13:48:41.715Z,6.30
2018-06-13T13:51:10.811Z,6.53
2018-06-13T13:53:40.589Z,8.90
2018-06-13T13:56:14.511Z,5.53
2018-06-13T13:58:47.594Z,7.37
2018-06-13T14:01:17.766Z,11.00
2018-06-13T14:03:48.831Z,7.47
2018-06-13T14:06:20.891Z,6.20
2018-06-13T14:08:50.586Z,6.77
2018-06-13T14:11:19.758Z,5.93
2018-06-13T14:13:50.770Z,8.80
2018-06-13T14:16:20.206Z,7.67
2018-06-13T14:18:49.423Z,9.53
2018-06-13T14:21:17.725Z,8.60
2018-06-13T14:23:46.694Z,10.37
2018-06-13T14:26:21.321Z,16.40
2018-06-13T14:28:52.437Z,8.93
2018-06-13T14:31:21.899Z,6.33
2018-06-13T14:33:54.807Z,7.67
2018-06-13T14:36:24.620Z,7.93
2018-06-13T14:38:54.075Z,8.53
2018-06-13T14:41:22.472Z,7.33
2018-06-13T14:43:51.629Z,5.53
2018-06-13T14:46:19.938Z,9.60
2018-06-13T14:48:48.873Z,7.47
2018-06-13T14:51:17.895Z,6.23
2018-06-13T14:53:46.995Z,7.17
2018-06-13T14:56:21.370Z,8.13
2018-06-13T14:58:50.587Z,7.93
2018-06-13T15:01:18.927Z,7.57
2018-06-13T15:03:48.400Z,7.47
2018-06-13T15:06:16.780Z,6.90
2018-06-13T15:08:48.852Z,9.23
2018-06-13T15:11:17.516Z,7.27
2018-06-13T15:13:47.915Z,7.17
2018-06-13T15:16:17.243Z,5.33
2018-06-13T15:18:46.156Z,7.57
2018-06-13T15:21:15.248Z,8.43
2018-06-13T15:23:44.033Z,8.97
2018-06-13T15:26:13.864Z,5.13
2018-06-13T15:28:42.730Z,6.07
2018-06-13T15:31:11.183Z,5.00
2018-06-13T15:33:41.361Z,5.90
2018-06-13T15:36:27.753Z,5.60
2018-06-13T15:38:57.742Z,7.03
2018-06-13T15:41:27.625Z,6.33
2018-06-13T15:43:58.671Z,6.20
2018-06-13T15:46:28.700Z,4.08
2018-06-13T15:49:10.904Z,3.90
2018-06-13T15:51:51.757Z,4.95
2018-06-13T15:56:57.288Z,4.58
2018-06-13T15:59:33.181Z,6.30
2018-06-13T16:02:02.672Z,4.78
2018-06-13T16:07:19.879Z,3.98
2018-06-13T16:10:03.990Z,4.50
2018-06-13T16:12:37.352Z,5.60
2018-06-13T16:15:16.020Z,4.03
2018-06-13T16:17:50.215Z,5.20
2018-06-13T16:20:23.142Z,7.58
2018-06-13T16:26:50.137Z,7.00
2018-06-13T16:36:17.687Z,5.12
2018-06-13T16:39:41.819Z,5.53
2018-06-13T16:42:18.277Z,7.17
2018-06-13T16:44:50.695Z,7.67
2018-06-13T16:47:36.266Z,7.37
2018-06-13T16:50:15.942Z,6.43
2018-06-13T16:57:13.862Z,4.67
2018-06-13T16:59:43.687Z,6.77
2018-06-13T17:02:14.920Z,4.10
2018-06-13T17:04:44.662Z,4.07
2018-06-13T17:07:18.702Z,5.17
2018-06-13T17:09:57.370Z,6.23
2018-06-13T17:12:27.763Z,5.23
2018-06-13T17:15:05.283Z,3.63
2018-06-13T17:17:35.241Z,5.10
2018-06-13T17:20:04.129Z,5.47
2018-06-13T17:22:34.499Z,5.17
2018-06-13T17:25:04.972Z,3.43
2018-06-13T17:27:35.501Z,6.73
2018-06-13T17:30:09.165Z,9.23
2018-06-13T17:32:45.034Z,4.67
2018-06-13T17:35:24.676Z,4.53
2018-06-13T17:38:19.074Z,6.07
2018-06-13T17:43:36.176Z,3.53
2018-06-13T17:46:10.634Z,6.37
2018-06-13T17:48:44.215Z,6.40
2018-06-13T17:54:07.091Z,14.23
2018-06-13T17:59:25.568Z,3.93
2018-06-13T18:01:56.858Z,6.37
2018-06-13T18:07:17.448Z,6.27
2018-06-13T18:15:27.827Z,4.30
2018-06-13T18:23:24.811Z,4.87
2018-06-13T18:25:55.315Z,6.00
2018-06-13T18:28:27.850Z,4.27
2018-06-13T18:30:58.586Z,9.23
2018-06-13T18:33:34.995Z,4.77
2018-06-13T18:36:14.650Z,4.20
2018-06-13T18:38:55.166Z,7.40
2018-06-13T18:41:36.585Z,4.47
2018-06-13T18:46:55.015Z,4.43
2018-06-13T18:49:24.811Z,4.17
2018-06-13T18:51:57.194Z,5.77
2018-06-13T18:54:26.399Z,4.70
2018-06-13T18:56:56.246Z,4.43
2018-06-13T18:59:25.172Z,3.13
2018-06-13T19:01:55.979Z,5.23
2018-06-13T19:04:25.269Z,4.27
2018-06-13T19:06:59.947Z,3.60
2018-06-13T19:09:33.432Z,4.80
2018-06-13T19:12:14.391Z,3.83
2018-06-13T19:14:45.946Z,3.23
2018-06-13T19:17:22.624Z,3.47
2018-06-13T19:22:41.496Z,3.50
2018-06-13T19:25:16.381Z,2.13
2018-06-13T19:27:50.088Z,5.30
2018-06-13T19:36:02.934Z,5.73
2018-06-13T19:38:38.464Z,6.53
2018-06-13T19:41:08.959Z,6.00
2018-06-13T19:43:45.026Z,4.67
2018-06-13T19:46:22.900Z,4.87
2018-06-13T19:48:54.521Z,3.03
2018-06-13T19:51:24.436Z,4.40
2018-06-13T19:54:04.458Z,3.97
2018-06-13T19:56:49.367Z,5.60
2018-06-13T19:59:24.828Z,3.57
2018-06-13T20:02:33.088Z,3.27
2018-06-13T20:08:13.750Z,3.00
2018-06-13T20:11:03.521Z,3.43
2018-06-13T20:19:03.305Z,3.97
2018-06-13T20:21:45.603Z,4.53
2018-06-13T20:24:21.116Z,3.17
2018-06-13T20:27:03.206Z,2.93
2018-06-13T20:29:41.677Z,7.00
2018-06-13T20:32:21.241Z,4.70
2018-06-13T20:34:51.755Z,3.20
2018-06-13T20:38:04.276Z,4.00
2018-06-13T20:40:34.992Z,3.53
2018-06-13T20:43:14.747Z,5.13
2018-06-13T20:45:45.250Z,4.47
2018-06-13T20:48:22.071Z,7.17
2018-06-13T20:50:51.767Z,3.90
2018-06-13T20:53:21.304Z,2.83
2018-06-13T20:55:50.889Z,3.37
2018-06-13T20:58:20.117Z,2.90
2018-06-13T21:00:49.486Z,5.50
2018-06-13T21:03:19.168Z,2.63
2018-06-13T21:05:49.259Z,4.83
2018-06-13T21:08:29.056Z,2.90
2018-06-13T21:10:58.576Z,5.93
2018-06-13T21:13:27.720Z,5.53
2018-06-13T21:15:58.288Z,3.07
2018-06-13T21:18:27.690Z,2.57
2018-06-13T21:23:30.520Z,2.63
2018-06-13T21:26:00.475Z,3.77
2018-06-13T21:28:46.235Z,5.60
2018-06-13T21:31:19.047Z,2.43
2018-06-13T21:33:54.976Z,4.63
2018-06-13T21:36:31.874Z,3.40
2018-06-13T21:39:10.398Z,3.67
2018-06-13T21:41:46.980Z,2.67
2018-06-13T21:44:15.617Z,3.90
2018-06-13T21:49:39.348Z,4.67
2018-06-13T21:52:12.524Z,2.33
2018-06-13T21:54:44.028Z,6.93
2018-06-13T21:57:28.361Z,3.10
2018-06-13T22:00:02.840Z,3.57
2018-06-13T22:02:33.480Z,3.70
2018-06-13T22:05:06.986Z,3.90
2018-06-13T22:07:36.184Z,3.37
2018-06-13T22:10:05.734Z,4.47
2018-06-13T22:12:34.562Z,3.57
2018-06-13T22:15:03.519Z,3.87
2018-06-13T22:17:32.350Z,4.23
2018-06-13T22:20:01.189Z,4.73
2018-06-13T22:22:30.135Z,2.67
2018-06-13T22:24:59.570Z,2.40
2018-06-13T22:27:29.099Z,2.33
2018-06-13T22:29:57.839Z,1.73
2018-06-13T22:32:27.734Z,3.73
2018-06-13T22:34:56.482Z,4.07
2018-06-13T22:37:35.368Z,4.43
2018-06-13T22:40:08.087Z,1.90
2018-06-13T22:42:37.528Z,2.97
2018-06-13T22:45:06.974Z,4.33
2018-06-13T22:48:02.567Z,2.87
2018-06-13T22:50:31.887Z,3.43
2018-06-13T22:53:02.059Z,3.03
2018-06-13T22:55:32.491Z,4.57
2018-06-13T22:58:01.889Z,4.60
2018-06-13T23:03:17.684Z,4.20
2018-06-13T23:05:50.779Z,2.60
2018-06-13T23:08:34.471Z,4.00
2018-06-13T23:11:03.460Z,4.00
2018-06-13T23:13:33.131Z,3.97
2018-06-13T23:16:02.215Z,3.07
2018-06-13T23:18:31.209Z,3.77
2018-06-13T23:21:00.346Z,4.47
2018-06-13T23:23:32.284Z,5.60
2018-06-13T23:26:00.931Z,1.90
2018-06-13T23:28:32.483Z,2.90
2018-06-13T23:31:02.058Z,2.73
2018-06-13T23:33:31.180Z,4.00
2018-06-13T23:36:00.004Z,2.23
2018-06-13T23:38:29.052Z,3.37
2018-06-13T23:40:58.416Z,3.37
2018-06-13T23:43:27.160Z,3.17
2018-06-13T23:45:56.072Z,2.63
2018-06-13T23:48:25.267Z,3.33
2018-06-13T23:50:54.138Z,3.23
2018-06-13T23:53:24.122Z,3.67
2018-06-13T23:55:52.624Z,3.10
2018-06-13T23:58:22.638Z,4.97
